createdAt,value
2022-08-05T00:00:26.025Z,1015.0
2022-08-05T00:15:56.230Z,1015.3
2022-08-05T00:30:33.499Z,1015.5
2022-08-05T00:45:38.606Z,1015.7
2022-08-05T01:00:33.909Z,1016.0
2022-08-05T01:15:36.510Z,1016.0
2022-08-05T01:30:33.747Z,1016.0
2022-08-05T01:45:23.350Z,1016.0
2022-08-05T02:00:30.541Z,1016.7
2022-08-05T02:15:23.480Z,1017.0
2022-08-05T02:30:23.359Z,1017.0
2022-08-05T02:45:24.123Z,1017.0
2022-08-05T03:00:25.338Z,1017.0
2022-08-05T03:15:24.321Z,1017.0
2022-08-05T03:30:30.297Z,1017.0
2022-08-05T03:45:23.777Z,1017.0
2022-08-05T04:00:31.464Z,1017.0
2022-08-05T04:15:24.458Z,1017.0
2022-08-05T04:30:23.651Z,1017.0
2022-08-05T04:45:48.567Z,1017.0
2022-08-05T05:00:23.898Z,1017.7
2022-08-05T05:15:56.714Z,1019.0
2022-08-05T05:30:31.226Z,1019.0
2022-08-05T05:45:24.542Z,1019.0
2022-08-05T06:00:27.599Z,1019.0
2022-08-05T06:15:24.420Z,1019.0
2022-08-05T06:30:23.987Z,1019.0
2022-08-05T06:45:44.548Z,1019.0
2022-08-05T07:00:24.816Z,1019.0
2022-08-05T07:15:34.203Z,1019.0
2022-08-05T07:30:27.963Z,1019.0
2022-08-05T07:45:57.014Z,1019.0
2022-08-05T08:00:24.161Z,1019.0
2022-08-05T08:16:33.949Z,1019.0
2022-08-05T08:30:32.538Z,1019.0
2022-08-05T08:45:26.633Z,1019.0
2022-08-05T09:00:24.395Z,1019.0
2022-08-05T09:15:23.940Z,1019.0
2022-08-05T09:30:23.989Z,1019.0
2022-08-05T09:46:06.729Z,1019.0
2022-08-05T10:00:24.578Z,1019.0
2022-08-05T10:15:24.008Z,1019.0
2022-08-05T10:31:21.048Z,1019.0
2022-08-05T10:45:39.901Z,1019.0
2022-08-05T11:00:23.966Z,1019.0
2022-08-05T11:15:59.270Z,1018.5
2022-08-05T11:30:33.160Z,1018.7
2022-08-05T11:46:23.373Z,1018.0
2022-08-05T12:00:38.264Z,1018.0
2022-08-05T12:15:38.375Z,1018.0
2022-08-05T12:30:23.193Z,1018.0
2022-08-05T12:45:23.267Z,1018.0
2022-08-05T13:02:00.630Z,1018.0
2022-08-05T13:15:24.509Z,1018.0
2022-08-05T13:30:35.314Z,1017.7
2022-08-05T13:45:23.369Z,1017.0
2022-08-05T14:00:27.262Z,1017.0
2022-08-05T14:16:04.519Z,1017.0
2022-08-05T14:30:23.312Z,1017.0
2022-08-05T14:45:23.313Z,1017.0
2022-08-05T15:00:28.070Z,1017.0
2022-08-05T15:15:54.304Z,1017.0
2022-08-05T15:30:23.522Z,1017.3
2022-08-05T15:45:37.778Z,1017.7
2022-08-05T16:00:30.621Z,1018.0
2022-08-05T16:15:23.565Z,1018.0
2022-08-05T16:30:26.110Z,1018.0
2022-08-05T16:46:05.421Z,1018.0
2022-08-05T17:00:34.306Z,1018.0
2022-08-05T17:15:24.005Z,1018.7
2022-08-05T17:30:28.955Z,1019.0
2022-08-05T17:45:23.687Z,1019.0
2022-08-05T18:00:28.569Z,1019.0
2022-08-05T18:15:23.703Z,1019.7
2022-08-05T18:30:26.420Z,1020.0
2022-08-05T18:45:23.709Z,1020.0
2022-08-05T19:00:27.209Z,1020.0
2022-08-05T19:15:58.166Z,1021.0
2022-08-05T19:30:23.847Z,1021.0
2022-08-05T19:45:25.609Z,1021.0
2022-08-05T20:00:24.410Z,1021.0
2022-08-05T20:15:50.784Z,1021.0
2022-08-05T20:30:24.282Z,1021.7
2022-08-05T20:45:24.029Z,1022.0
2022-08-05T21:00:41.306Z,1022.7
2022-08-05T21:15:23.962Z,1022.7
2022-08-05T21:30:24.097Z,1023.0
2022-08-05T21:45:51.901Z,1023.0
2022-08-05T22:16:00.990Z,1023.7
2022-08-05T22:30:23.541Z,1024.0
2022-08-05T22:45:23.133Z,1024.0
2022-08-05T23:00:23.886Z,1024.0
2022-08-05T23:15:29.454Z,1024.0
2022-08-05T23:30:27.138Z,1024.0
2022-08-05T23:45:24.191Z,1024.0
